sensor_id;sensor_type;location;lat;lon;timestamp;P1;durP1;ratioP1;P2;durP2;ratioP2
1507;SDS011;745;48.586;10.032;2023-01-30T00:01:02;24.10;;;13.03;;
1507;SDS011;745;48.586;10.032;2023-01-30T00:05:34;21.80;;;13.47;;
1507;SDS011;745;48.586;10.032;2023-01-30T00:10:05;25.00;;;13.93;;
1507;SDS011;745;48.586;10.032;2023-01-30T00:14:35;28.20;;;14.67;;
1507;SDS011;745;48.586;10.032;2023-01-30T00:19:06;24.83;;;13.83;;
1507;SDS011;745;48.586;10.032;2023-01-30T00:23:36;22.87;;;14.60;;
1507;SDS011;745;48.586;10.032;2023-01-30T00:28:07;22.40;;;13.27;;
1507;SDS011;745;48.586;10.032;2023-01-30T00:32:38;21.90;;;12.77;;
1507;SDS011;745;48.586;10.032;2023-01-30T00:37:08;22.60;;;12.30;;
1507;SDS011;745;48.586;10.032;2023-01-30T00:41:38;20.80;;;12.23;;
1507;SDS011;745;48.586;10.032;2023-01-30T00:46:30;23.70;;;12.83;;
1507;SDS011;745;48.586;10.032;2023-01-30T00:51:20;23.70;;;12.07;;
1507;SDS011;745;48.586;10.032;2023-01-30T00:55:51;21.17;;;12.10;;
1507;SDS011;745;48.586;10.032;2023-01-30T01:00:21;21.20;;;12.53;;
1507;SDS011;745;48.586;10.032;2023-01-30T01:04:52;19.60;;;11.77;;
1507;SDS011;745;48.586;10.032;2023-01-30T01:09:23;24.77;;;12.73;;
1507;SDS011;745;48.586;10.032;2023-01-30T01:13:57;21.83;;;12.53;;
1507;SDS011;745;48.586;10.032;2023-01-30T01:18:29;21.07;;;11.73;;
1507;SDS011;745;48.586;10.032;2023-01-30T01:22:59;21.83;;;10.70;;
1507;SDS011;745;48.586;10.032;2023-01-30T01:27:30;16.30;;;9.73;;
1507;SDS011;745;48.586;10.032;2023-01-30T01:32:01;19.03;;;11.10;;
1507;SDS011;745;48.586;10.032;2023-01-30T01:36:31;24.90;;;13.70;;
1507;SDS011;745;48.586;10.032;2023-01-30T01:41:01;24.50;;;13.50;;
1507;SDS011;745;48.586;10.032;2023-01-30T01:45:32;22.60;;;14.00;;
1507;SDS011;745;48.586;10.032;2023-01-30T01:50:03;23.40;;;13.53;;
1507;SDS011;745;48.586;10.032;2023-01-30T01:59:55;21.70;;;12.67;;
1507;SDS011;745;48.586;10.032;2023-01-30T02:04:09;22.30;;;12.57;;
1507;SDS011;745;48.586;10.032;2023-01-30T02:09:04;22.80;;;11.80;;
1507;SDS011;745;48.586;10.032;2023-01-30T02:13:37;22.23;;;12.10;;
1507;SDS011;745;48.586;10.032;2023-01-30T02:18:07;19.27;;;11.50;;
1507;SDS011;745;48.586;10.032;2023-01-30T02:22:44;23.00;;;12.60;;
1507;SDS011;745;48.586;10.032;2023-01-30T02:42:24;27.23;;;14.80;;
1507;SDS011;745;48.586;10.032;2023-01-30T02:47:03;29.07;;;14.00;;
1507;SDS011;745;48.586;10.032;2023-01-30T02:51:36;24.80;;;14.20;;
1507;SDS011;745;48.586;10.032;2023-01-30T02:56:08;23.63;;;13.40;;
1507;SDS011;745;48.586;10.032;2023-01-30T03:10:35;20.80;;;13.03;;
1507;SDS011;745;48.586;10.032;2023-01-30T03:15:13;26.50;;;13.50;;
1507;SDS011;745;48.586;10.032;2023-01-30T03:19:46;28.20;;;15.50;;
1507;SDS011;745;48.586;10.032;2023-01-30T03:24:17;24.50;;;15.43;;
1507;SDS011;745;48.586;10.032;2023-01-30T03:28:48;20.90;;;13.27;;
1507;SDS011;745;48.586;10.032;2023-01-30T03:33:19;24.90;;;13.00;;
1507;SDS011;745;48.586;10.032;2023-01-30T03:37:50;26.40;;;14.70;;
1507;SDS011;745;48.586;10.032;2023-01-30T03:42:21;23.43;;;13.07;;
1507;SDS011;745;48.586;10.032;2023-01-30T03:46:51;27.40;;;15.27;;
1507;SDS011;745;48.586;10.032;2023-01-30T03:51:21;23.50;;;14.00;;
1507;SDS011;745;48.586;10.032;2023-01-30T03:55:52;23.23;;;14.23;;
1507;SDS011;745;48.586;10.032;2023-01-30T04:00:22;28.23;;;15.00;;
1507;SDS011;745;48.586;10.032;2023-01-30T04:04:53;21.00;;;13.83;;
1507;SDS011;745;48.586;10.032;2023-01-30T04:09:23;20.47;;;13.03;;
1507;SDS011;745;48.586;10.032;2023-01-30T04:13:53;22.90;;;12.97;;
1507;SDS011;745;48.586;10.032;2023-01-30T04:18:24;21.60;;;12.37;;
1507;SDS011;745;48.586;10.032;2023-01-30T04:22:54;19.23;;;12.03;;
1507;SDS011;745;48.586;10.032;2023-01-30T04:27:25;22.20;;;13.63;;
1507;SDS011;745;48.586;10.032;2023-01-30T04:31:55;28.40;;;17.80;;
1507;SDS011;745;48.586;10.032;2023-01-30T04:36:25;21.40;;;14.37;;
1507;SDS011;745;48.586;10.032;2023-01-30T04:40:58;20.67;;;13.60;;
1507;SDS011;745;48.586;10.032;2023-01-30T04:45:28;20.43;;;12.33;;
1507;SDS011;745;48.586;10.032;2023-01-30T04:49:59;15.33;;;11.20;;
1507;SDS011;745;48.586;10.032;2023-01-30T04:54:29;17.07;;;10.50;;
1507;SDS011;745;48.586;10.032;2023-01-30T04:58:59;17.20;;;9.97;;
1507;SDS011;745;48.586;10.032;2023-01-30T05:03:30;18.40;;;11.47;;
1507;SDS011;745;48.586;10.032;2023-01-30T05:08:00;16.73;;;9.97;;
1507;SDS011;745;48.586;10.032;2023-01-30T05:12:31;15.37;;;10.10;;
1507;SDS011;745;48.586;10.032;2023-01-30T05:17:02;14.90;;;10.20;;
1507;SDS011;745;48.586;10.032;2023-01-30T05:21:32;16.10;;;10.10;;
1507;SDS011;745;48.586;10.032;2023-01-30T05:26:03;18.63;;;11.80;;
1507;SDS011;745;48.586;10.032;2023-01-30T05:30:34;19.30;;;11.03;;
1507;SDS011;745;48.586;10.032;2023-01-30T05:35:04;15.57;;;10.37;;
1507;SDS011;745;48.586;10.032;2023-01-30T05:39:35;18.10;;;10.53;;
1507;SDS011;745;48.586;10.032;2023-01-30T05:44:05;24.87;;;14.90;;
1507;SDS011;745;48.586;10.032;2023-01-30T05:48:36;30.50;;;17.00;;
1507;SDS011;745;48.586;10.032;2023-01-30T05:53:06;20.80;;;12.43;;
1507;SDS011;745;48.586;10.032;2023-01-30T05:57:37;20.40;;;12.83;;
1507;SDS011;745;48.586;10.032;2023-01-30T06:02:07;17.23;;;10.30;;
1507;SDS011;745;48.586;10.032;2023-01-30T06:06:38;14.57;;;10.03;;
1507;SDS011;745;48.586;10.032;2023-01-30T06:11:10;18.87;;;10.53;;
1507;SDS011;745;48.586;10.032;2023-01-30T06:15:41;25.50;;;14.60;;
1507;SDS011;745;48.586;10.032;2023-01-30T06:20:12;26.20;;;13.07;;
1507;SDS011;745;48.586;10.032;2023-01-30T06:24:42;20.13;;;12.83;;
1507;SDS011;745;48.586;10.032;2023-01-30T06:29:12;19.30;;;11.70;;
1507;SDS011;745;48.586;10.032;2023-01-30T06:33:43;19.83;;;12.00;;
1507;SDS011;745;48.586;10.032;2023-01-30T06:38:13;18.63;;;11.37;;
1507;SDS011;745;48.586;10.032;2023-01-30T06:42:44;18.33;;;10.90;;
1507;SDS011;745;48.586;10.032;2023-01-30T06:47:15;17.67;;;11.93;;
1507;SDS011;745;48.586;10.032;2023-01-30T06:51:45;15.97;;;10.20;;
1507;SDS011;745;48.586;10.032;2023-01-30T06:56:16;17.67;;;11.13;;
1507;SDS011;745;48.586;10.032;2023-01-30T07:00:46;16.47;;;10.10;;
1507;SDS011;745;48.586;10.032;2023-01-30T07:05:16;16.00;;;10.10;;
1507;SDS011;745;48.586;10.032;2023-01-30T07:09:47;13.53;;;9.40;;
1507;SDS011;745;48.586;10.032;2023-01-30T07:14:17;14.90;;;9.47;;
1507;SDS011;745;48.586;10.032;2023-01-30T07:18:47;17.73;;;8.90;;
1507;SDS011;745;48.586;10.032;2023-01-30T07:23:18;14.57;;;9.97;;
1507;SDS011;745;48.586;10.032;2023-01-30T07:27:49;11.47;;;8.13;;
1507;SDS011;745;48.586;10.032;2023-01-30T07:32:20;14.53;;;9.40;;
1507;SDS011;745;48.586;10.032;2023-01-30T07:36:51;19.43;;;11.07;;
1507;SDS011;745;48.586;10.032;2023-01-30T07:41:21;13.93;;;8.50;;
1507;SDS011;745;48.586;10.032;2023-01-30T07:45:52;12.77;;;10.10;;
1507;SDS011;745;48.586;10.032;2023-01-30T07:50:22;13.17;;;9.23;;
1507;SDS011;745;48.586;10.032;2023-01-30T07:54:53;12.80;;;8.70;;
1507;SDS011;745;48.586;10.032;2023-01-30T07:59:23;11.63;;;7.90;;
1507;SDS011;745;48.586;10.032;2023-01-30T08:03:53;13.23;;;8.00;;
1507;SDS011;745;48.586;10.032;2023-01-30T08:08:24;12.03;;;7.73;;
1507;SDS011;745;48.586;10.032;2023-01-30T08:12:54;11.93;;;8.27;;
1507;SDS011;745;48.586;10.032;2023-01-30T08:17:24;11.00;;;8.60;;
1507;SDS011;745;48.586;10.032;2023-01-30T08:21:55;13.67;;;7.90;;
1507;SDS011;745;48.586;10.032;2023-01-30T08:26:25;15.83;;;9.87;;
1507;SDS011;745;48.586;10.032;2023-01-30T08:30:56;15.27;;;8.63;;
1507;SDS011;745;48.586;10.032;2023-01-30T08:35:26;16.87;;;10.53;;
1507;SDS011;745;48.586;10.032;2023-01-30T08:39:57;16.37;;;10.30;;
1507;SDS011;745;48.586;10.032;2023-01-30T08:44:27;13.07;;;8.20;;
1507;SDS011;745;48.586;10.032;2023-01-30T08:48:57;16.17;;;10.30;;
1507;SDS011;745;48.586;10.032;2023-01-30T08:53:27;16.90;;;9.67;;
1507;SDS011;745;48.586;10.032;2023-01-30T08:57:58;13.20;;;8.43;;
1507;SDS011;745;48.586;10.032;2023-01-30T09:02:29;9.67;;;7.33;;
1507;SDS011;745;48.586;10.032;2023-01-30T09:06:59;10.53;;;7.77;;
1507;SDS011;745;48.586;10.032;2023-01-30T09:11:29;14.77;;;8.50;;
1507;SDS011;745;48.586;10.032;2023-01-30T09:16:00;14.87;;;9.10;;
1507;SDS011;745;48.586;10.032;2023-01-30T09:20:30;11.40;;;9.17;;
1507;SDS011;745;48.586;10.032;2023-01-30T09:25:01;11.83;;;7.37;;
1507;SDS011;745;48.586;10.032;2023-01-30T09:29:31;11.07;;;8.20;;
1507;SDS011;745;48.586;10.032;2023-01-30T09:34:01;12.33;;;8.87;;
1507;SDS011;745;48.586;10.032;2023-01-30T09:38:32;12.30;;;8.50;;
1507;SDS011;745;48.586;10.032;2023-01-30T09:47:55;16.33;;;10.97;;
1507;SDS011;745;48.586;10.032;2023-01-30T09:57:22;14.07;;;8.83;;
1507;SDS011;745;48.586;10.032;2023-01-30T10:07:06;13.37;;;8.67;;
1507;SDS011;745;48.586;10.032;2023-01-30T10:12:02;15.33;;;10.90;;
1507;SDS011;745;48.586;10.032;2023-01-30T10:16:54;15.70;;;11.10;;
1507;SDS011;745;48.586;10.032;2023-01-30T10:26:30;17.00;;;10.47;;
1507;SDS011;745;48.586;10.032;2023-01-30T10:31:03;11.93;;;9.30;;
1507;SDS011;745;48.586;10.032;2023-01-30T10:35:37;15.33;;;9.80;;
1507;SDS011;745;48.586;10.032;2023-01-30T10:45:12;14.60;;;9.47;;
1507;SDS011;745;48.586;10.032;2023-01-30T10:54:27;11.27;;;8.30;;
1507;SDS011;745;48.586;10.032;2023-01-30T11:03:42;7.80;;;6.67;;
1507;SDS011;745;48.586;10.032;2023-01-30T11:12:47;9.67;;;6.10;;
1507;SDS011;745;48.586;10.032;2023-01-30T11:17:19;9.20;;;6.07;;
1507;SDS011;745;48.586;10.032;2023-01-30T11:21:54;27.03;;;16.63;;
1507;SDS011;745;48.586;10.032;2023-01-30T11:26:31;11.27;;;9.27;;
1507;SDS011;745;48.586;10.032;2023-01-30T11:31:04;11.47;;;9.00;;
1507;SDS011;745;48.586;10.032;2023-01-30T11:35:34;11.60;;;6.90;;
1507;SDS011;745;48.586;10.032;2023-01-30T11:40:21;8.50;;;6.50;;
1507;SDS011;745;48.586;10.032;2023-01-30T11:44:55;9.33;;;6.57;;
1507;SDS011;745;48.586;10.032;2023-01-30T11:49:29;7.40;;;6.00;;
1507;SDS011;745;48.586;10.032;2023-01-30T11:54:03;11.10;;;6.80;;
1507;SDS011;745;48.586;10.032;2023-01-30T11:58:36;7.77;;;5.63;;
1507;SDS011;745;48.586;10.032;2023-01-30T12:03:11;7.33;;;5.53;;
1507;SDS011;745;48.586;10.032;2023-01-30T12:07:44;7.23;;;6.43;;
1507;SDS011;745;48.586;10.032;2023-01-30T12:12:34;6.00;;;5.40;;
1507;SDS011;745;48.586;10.032;2023-01-30T12:17:10;6.33;;;4.80;;
1507;SDS011;745;48.586;10.032;2023-01-30T12:31:04;4.03;;;3.47;;
1507;SDS011;745;48.586;10.032;2023-01-30T12:35:43;4.40;;;3.10;;
1507;SDS011;745;48.586;10.032;2023-01-30T13:19:45;3.07;;;2.70;;
1507;SDS011;745;48.586;10.032;2023-01-30T13:24:29;5.13;;;4.37;;
1507;SDS011;745;48.586;10.032;2023-01-30T13:29:22;4.83;;;3.93;;
1507;SDS011;745;48.586;10.032;2023-01-30T13:34:05;3.20;;;2.90;;
1507;SDS011;745;48.586;10.032;2023-01-30T13:38:45;2.30;;;2.10;;
1507;SDS011;745;48.586;10.032;2023-01-30T13:43:41;2.80;;;2.10;;
1507;SDS011;745;48.586;10.032;2023-01-30T13:48:22;2.60;;;2.40;;
1507;SDS011;745;48.586;10.032;2023-01-30T13:52:55;2.13;;;1.97;;
1507;SDS011;745;48.586;10.032;2023-01-30T13:57:42;1.97;;;1.87;;
1507;SDS011;745;48.586;10.032;2023-01-30T14:02:16;2.50;;;2.30;;
1507;SDS011;745;48.586;10.032;2023-01-30T14:06:51;2.30;;;2.10;;
1507;SDS011;745;48.586;10.032;2023-01-30T14:11:32;3.57;;;2.53;;
1507;SDS011;745;48.586;10.032;2023-01-30T14:16:04;2.40;;;2.20;;
1507;SDS011;745;48.586;10.032;2023-01-30T14:20:45;1.93;;;1.80;;
1507;SDS011;745;48.586;10.032;2023-01-30T14:29:59;2.17;;;1.97;;
1507;SDS011;745;48.586;10.032;2023-01-30T14:34:40;2.63;;;2.43;;
1507;SDS011;745;48.586;10.032;2023-01-30T14:49:41;4.83;;;3.13;;
1507;SDS011;745;48.586;10.032;2023-01-30T14:58:52;4.00;;;3.60;;
1507;SDS011;745;48.586;10.032;2023-01-30T15:03:29;6.60;;;3.53;;
1507;SDS011;745;48.586;10.032;2023-01-30T15:08:08;5.13;;;3.53;;
1507;SDS011;745;48.586;10.032;2023-01-30T15:27:14;8.80;;;5.87;;
1507;SDS011;745;48.586;10.032;2023-01-30T15:31:57;5.27;;;4.60;;
1507;SDS011;745;48.586;10.032;2023-01-30T15:36:31;5.47;;;4.57;;
1507;SDS011;745;48.586;10.032;2023-01-30T15:41:07;6.40;;;4.37;;
1507;SDS011;745;48.586;10.032;2023-01-30T15:45:41;4.77;;;4.00;;
1507;SDS011;745;48.586;10.032;2023-01-30T15:50:19;6.27;;;4.67;;
1507;SDS011;745;48.586;10.032;2023-01-30T15:54:51;5.90;;;4.30;;
1507;SDS011;745;48.586;10.032;2023-01-30T15:59:30;6.10;;;4.33;;
1507;SDS011;745;48.586;10.032;2023-01-30T16:04:04;4.60;;;4.20;;
1507;SDS011;745;48.586;10.032;2023-01-30T16:08:56;6.63;;;4.90;;
1507;SDS011;745;48.586;10.032;2023-01-30T16:13:32;7.53;;;5.17;;
1507;SDS011;745;48.586;10.032;2023-01-30T16:18:24;10.93;;;5.10;;
1507;SDS011;745;48.586;10.032;2023-01-30T16:23:01;7.43;;;4.40;;
1507;SDS011;745;48.586;10.032;2023-01-30T16:27:32;7.43;;;5.43;;
1507;SDS011;745;48.586;10.032;2023-01-30T16:32:09;6.83;;;4.77;;
1507;SDS011;745;48.586;10.032;2023-01-30T16:36:41;6.47;;;4.93;;
1507;SDS011;745;48.586;10.032;2023-01-30T16:41:32;6.67;;;5.50;;
1507;SDS011;745;48.586;10.032;2023-01-30T16:51:26;8.90;;;5.60;;
1507;SDS011;745;48.586;10.032;2023-01-30T16:55:57;8.47;;;5.00;;
1507;SDS011;745;48.586;10.032;2023-01-30T17:05:37;5.07;;;4.20;;
1507;SDS011;745;48.586;10.032;2023-01-30T17:10:00;5.00;;;3.50;;
1507;SDS011;745;48.586;10.032;2023-01-30T17:14:31;7.33;;;5.53;;
1507;SDS011;745;48.586;10.032;2023-01-30T17:19:01;6.07;;;4.03;;
1507;SDS011;745;48.586;10.032;2023-01-30T17:23:32;8.33;;;4.40;;
1507;SDS011;745;48.586;10.032;2023-01-30T17:28:04;5.30;;;4.20;;
1507;SDS011;745;48.586;10.032;2023-01-30T17:32:35;6.33;;;4.23;;
1507;SDS011;745;48.586;10.032;2023-01-30T17:37:08;5.07;;;4.50;;
1507;SDS011;745;48.586;10.032;2023-01-30T17:41:43;6.43;;;3.87;;
1507;SDS011;745;48.586;10.032;2023-01-30T17:46:14;10.53;;;4.47;;
1507;SDS011;745;48.586;10.032;2023-01-30T17:50:45;6.87;;;4.73;;
1507;SDS011;745;48.586;10.032;2023-01-30T17:55:15;7.17;;;5.03;;
1507;SDS011;745;48.586;10.032;2023-01-30T17:59:45;6.70;;;4.97;;
1507;SDS011;745;48.586;10.032;2023-01-30T18:04:16;6.97;;;5.10;;
1507;SDS011;745;48.586;10.032;2023-01-30T18:08:48;7.93;;;4.67;;
1507;SDS011;745;48.586;10.032;2023-01-30T18:13:18;5.50;;;4.43;;
1507;SDS011;745;48.586;10.032;2023-01-30T18:17:49;9.10;;;4.10;;
1507;SDS011;745;48.586;10.032;2023-01-30T18:22:20;7.80;;;4.73;;
1507;SDS011;745;48.586;10.032;2023-01-30T18:26:51;9.80;;;5.13;;
1507;SDS011;745;48.586;10.032;2023-01-30T18:31:21;5.10;;;4.60;;
1507;SDS011;745;48.586;10.032;2023-01-30T18:35:53;6.53;;;3.67;;
1507;SDS011;745;48.586;10.032;2023-01-30T18:40:24;6.73;;;4.20;;
1507;SDS011;745;48.586;10.032;2023-01-30T18:44:55;6.70;;;4.50;;
1507;SDS011;745;48.586;10.032;2023-01-30T18:49:25;5.83;;;4.83;;
1507;SDS011;745;48.586;10.032;2023-01-30T18:53:56;6.37;;;4.47;;
1507;SDS011;745;48.586;10.032;2023-01-30T18:58:30;8.77;;;4.93;;
1507;SDS011;745;48.586;10.032;2023-01-30T19:03:01;6.17;;;4.80;;
1507;SDS011;745;48.586;10.032;2023-01-30T19:07:32;7.20;;;5.10;;
1507;SDS011;745;48.586;10.032;2023-01-30T19:12:04;7.10;;;4.40;;
1507;SDS011;745;48.586;10.032;2023-01-30T19:16:53;10.43;;;4.90;;
1507;SDS011;745;48.586;10.032;2023-01-30T19:21:24;8.03;;;4.90;;
1507;SDS011;745;48.586;10.032;2023-01-30T19:25:55;4.77;;;4.30;;
1507;SDS011;745;48.586;10.032;2023-01-30T19:30:26;7.13;;;5.60;;
1507;SDS011;745;48.586;10.032;2023-01-30T19:34:58;5.57;;;4.77;;
1507;SDS011;745;48.586;10.032;2023-01-30T19:39:29;7.30;;;5.27;;
1507;SDS011;745;48.586;10.032;2023-01-30T19:44:00;9.37;;;5.30;;
1507;SDS011;745;48.586;10.032;2023-01-30T19:48:32;7.90;;;4.67;;
1507;SDS011;745;48.586;10.032;2023-01-30T19:53:02;12.70;;;5.70;;
1507;SDS011;745;48.586;10.032;2023-01-30T19:57:33;7.20;;;5.17;;
1507;SDS011;745;48.586;10.032;2023-01-30T20:02:04;8.60;;;5.00;;
1507;SDS011;745;48.586;10.032;2023-01-30T20:06:35;8.70;;;4.97;;
1507;SDS011;745;48.586;10.032;2023-01-30T20:11:07;11.67;;;5.73;;
1507;SDS011;745;48.586;10.032;2023-01-30T20:15:38;12.30;;;6.20;;
1507;SDS011;745;48.586;10.032;2023-01-30T20:20:09;7.37;;;5.73;;
1507;SDS011;745;48.586;10.032;2023-01-30T20:24:40;6.27;;;5.23;;
1507;SDS011;745;48.586;10.032;2023-01-30T20:29:10;12.43;;;6.20;;
1507;SDS011;745;48.586;10.032;2023-01-30T20:33:41;14.43;;;6.70;;
1507;SDS011;745;48.586;10.032;2023-01-30T20:38:11;7.90;;;5.80;;
1507;SDS011;745;48.586;10.032;2023-01-30T20:42:42;7.50;;;5.80;;
1507;SDS011;745;48.586;10.032;2023-01-30T20:47:13;6.43;;;5.00;;
1507;SDS011;745;48.586;10.032;2023-01-30T20:51:43;8.67;;;4.57;;
1507;SDS011;745;48.586;10.032;2023-01-30T20:56:14;10.33;;;6.07;;
1507;SDS011;745;48.586;10.032;2023-01-30T21:00:44;7.80;;;5.03;;
1507;SDS011;745;48.586;10.032;2023-01-30T21:05:15;8.07;;;4.90;;
1507;SDS011;745;48.586;10.032;2023-01-30T21:09:47;10.13;;;5.40;;
1507;SDS011;745;48.586;10.032;2023-01-30T21:14:18;7.90;;;4.30;;
1507;SDS011;745;48.586;10.032;2023-01-30T21:18:50;10.00;;;6.00;;
1507;SDS011;745;48.586;10.032;2023-01-30T21:23:22;6.77;;;4.80;;
1507;SDS011;745;48.586;10.032;2023-01-30T21:27:53;7.63;;;5.23;;
1507;SDS011;745;48.586;10.032;2023-01-30T21:32:23;10.63;;;5.00;;
1507;SDS011;745;48.586;10.032;2023-01-30T21:36:53;7.63;;;4.50;;
1507;SDS011;745;48.586;10.032;2023-01-30T21:41:43;9.10;;;5.47;;
1507;SDS011;745;48.586;10.032;2023-01-30T21:46:20;9.10;;;4.97;;
1507;SDS011;745;48.586;10.032;2023-01-30T21:50:51;9.00;;;5.37;;
1507;SDS011;745;48.586;10.032;2023-01-30T21:55:21;10.33;;;5.47;;
1507;SDS011;745;48.586;10.032;2023-01-30T21:59:51;10.30;;;5.80;;
1507;SDS011;745;48.586;10.032;2023-01-30T22:04:22;13.10;;;4.80;;
1507;SDS011;745;48.586;10.032;2023-01-30T22:08:53;8.33;;;5.80;;
1507;SDS011;745;48.586;10.032;2023-01-30T22:13:26;7.80;;;6.03;;
1507;SDS011;745;48.586;10.032;2023-01-30T22:17:56;10.30;;;5.60;;
1507;SDS011;745;48.586;10.032;2023-01-30T22:22:28;7.07;;;5.70;;
1507;SDS011;745;48.586;10.032;2023-01-30T22:27:00;9.53;;;5.17;;
1507;SDS011;745;48.586;10.032;2023-01-30T22:31:31;14.70;;;5.40;;
1507;SDS011;745;48.586;10.032;2023-01-30T22:36:04;7.70;;;4.60;;
1507;SDS011;745;48.586;10.032;2023-01-30T22:40:35;7.03;;;5.57;;
1507;SDS011;745;48.586;10.032;2023-01-30T22:45:06;8.00;;;5.57;;
1507;SDS011;745;48.586;10.032;2023-01-30T22:49:37;11.03;;;5.03;;
1507;SDS011;745;48.586;10.032;2023-01-30T22:54:09;10.47;;;5.33;;
1507;SDS011;745;48.586;10.032;2023-01-30T22:58:44;7.00;;;4.70;;
1507;SDS011;745;48.586;10.032;2023-01-30T23:03:15;9.07;;;4.53;;
1507;SDS011;745;48.586;10.032;2023-01-30T23:07:45;10.43;;;4.27;;
1507;SDS011;745;48.586;10.032;2023-01-30T23:12:15;10.50;;;4.70;;
1507;SDS011;745;48.586;10.032;2023-01-30T23:17:05;6.33;;;4.70;;
1507;SDS011;745;48.586;10.032;2023-01-30T23:21:54;5.90;;;3.47;;
1507;SDS011;745;48.586;10.032;2023-01-30T23:26:28;4.00;;;3.57;;
1507;SDS011;745;48.586;10.032;2023-01-30T23:31:10;8.17;;;4.17;;
1507;SDS011;745;48.586;10.032;2023-01-30T23:35:42;4.90;;;3.97;;
1507;SDS011;745;48.586;10.032;2023-01-30T23:40:12;4.23;;;3.83;;
1507;SDS011;745;48.586;10.032;2023-01-30T23:44:43;8.90;;;3.33;;
1507;SDS011;745;48.586;10.032;2023-01-30T23:49:13;5.30;;;3.60;;
1507;SDS011;745;48.586;10.032;2023-01-30T23:53:44;8.33;;;4.50;;
1507;SDS011;745;48.586;10.032;2023-01-30T23:58:14;4.70;;;3.40;;
